You are listening to:
SBLO Twr/App/Center - Londrina, Brazil

SBLO 162000Z 14004KT 9999 FEW045 26/14 Q1023

If stream doesn't start automatically press the play button
If stream stops then reload player then press play